Gure Amuitz — EASO — position and weather

sailwx.info

Track history (hours):
 
Tides and Currents Weather Stations Pressure Air Temp Water Temp Dewpoint Dewpoint Depression Visibility Wind Speed Wind Dir Waves Ship Positions

Gure Amuitz

Last reported at 2017-Jun-26 11:26 UTC. Time now 2017-Jun-27 05:33 UTC.
Position N 43°23' W 001°47'.

Length 28 m.

Type: Fishing. MMSI: 224010590.

Date/timePositionNaut miles runAvg speedWind from/ knotsBaromVisibWave heightAir tempDewpointWater temp
2017-Jun-26 11:26N 43°23' W 001°47'0 0.3
2017-Jun-26 11:00N 43°23' W 001°47'0 0.0
2017-Jun-26 10:30N 43°23' W 001°47'0 0.0
2017-Jun-26 10:00N 43°23' W 001°47'0 0.0
2017-Jun-26 09:30N 43°23' W 001°47'0 0.0
2017-Jun-26 09:00N 43°23' W 001°47'0 0.0
2017-Jun-26 08:30N 43°23' W 001°47'0 0.0
2017-Jun-26 08:00N 43°23' W 001°47'0 0.0
2017-Jun-26 07:30N 43°23' W 001°47'0 0.0
2017-Jun-26 07:00N 43°23' W 001°47'0 0.0
2017-Jun-24 07:56N 43°23' W 001°47'0 0.0
2017-Jun-23 09:27N 43°23' W 001°47'0 0.0
2017-Jun-23 09:00N 43°23' W 001°47'0 0.0
2017-Jun-22 10:53N 43°23' W 001°47'0 0.0
2017-Jun-22 10:30N 43°23' W 001°47'0 0.0
2017-Jun-22 10:00N 43°23' W 001°47'0 0.0
2017-Jun-22 09:31N 43°23' W 001°47'0 0.0
2017-Jun-22 09:00N 43°23' W 001°47'0 0.0
2017-Jun-22 08:30N 43°23' W 001°47'0 0.0
2017-Jun-22 08:00N 43°23' W 001°47'0 0.0
2017-Jun-22 07:30N 43°23' W 001°47'0 0.0
2017-Jun-22 07:01N 43°23' W 001°47'0 0.0
2017-Jun-22 06:30N 43°23' W 001°47'0 0.0
2017-Jun-22 06:00N 43°23' W 001°47'0 0.0
2017-Jun-22 05:30N 43°23' W 001°47'0 0.1
2017-Jun-22 05:00N 43°23' W 001°48'0 0.0
2017-Jun-22 04:25N 43°23' W 001°48'3 4.8
2017-Jun-22 03:43N 43°24' W 001°52'3 9.6
2017-Jun-22 03:25N 43°23' W 001°56'4 8.5
2017-Jun-22 02:55N 43°21' W 002°01'3 7.2
2017-Jun-22 02:30N 43°21' W 002°05'3 6.0
2017-Jun-22 02:00N 43°24' W 002°06'0 0.7
2017-Jun-22 01:27N 43°24' W 002°06'0 0.7
2017-Jun-22 01:00N 43°25' W 002°06'0 0.7
2017-Jun-22 00:30N 43°25' W 002°07'0 0.7
2017-Jun-22 00:01N 43°25' W 002°07'0 0.8
2017-Jun-21 23:30N 43°25' W 002°07'0 0.6
2017-Jun-21 23:00N 43°26' W 002°08'0 0.4
2017-Jun-21 22:30N 43°26' W 002°08'1 1.8
2017-Jun-21 22:00N 43°26' W 002°09'4 8.3
2017-Jun-21 21:28N 43°31' W 002°08'4 8.2
2017-Jun-21 21:01N 43°34' W 002°06'4 8.2
2017-Jun-21 20:30N 43°38' W 002°05'4 9.0
2017-Jun-21 20:00N 43°38' W 001°59'4 8.4
2017-Jun-21 19:30N 43°35' W 001°55'4 9.0
2017-Jun-21 19:00N 43°31' W 001°52'5 9.0
2017-Jun-21 18:29N 43°27' W 001°49'4 8.1
2017-Jun-21 18:00N 43°23' W 001°48'0 0.0
2017-Jun-21 15:21N 43°23' W 001°47'0 0.0
2017-Jun-21 15:00N 43°23' W 001°47'1 1.1
2017-Jun-21 14:29N 43°24' W 001°47'31 9.7
2017-Jun-21 11:20N 43°29' W 002°29'2410.0
2017-Jun-21 08:59N 43°34' W 003°00'510.2
2017-Jun-21 08:30N 43°35' W 003°07'510.1
2017-Jun-21 07:58N 43°37' W 003°14'510.1
2017-Jun-21 07:30N 43°38' W 003°20'510.0
2017-Jun-21 06:59N 43°40' W 003°27'5 9.9
2017-Jun-21 06:30N 43°42' W 003°33'5 9.5
2017-Jun-21 06:00N 43°44' W 003°39'4 7.3
2017-Jun-21 05:30N 43°43' W 003°44'0 0.9
2017-Jun-21 05:00N 43°44' W 003°45'0 0.5
2017-Jun-21 04:30N 43°43' W 003°45'1 2.9
2017-Jun-21 04:01N 43°43' W 003°47'0 0.3
2017-Jun-21 03:30N 43°43' W 003°46'1 1.9
2017-Jun-21 02:57N 43°42' W 003°46'4 9.2
2017-Jun-21 02:30N 43°42' W 003°52'510.3
2017-Jun-21 02:00N 43°45' W 003°58'14 6.1
2017-Jun-20 23:38N 43°47' W 004°18'0 0.4
2017-Jun-20 22:54N 43°47' W 004°17'3 6.1
2017-Jun-20 22:28N 43°46' W 004°14'4 8.2
2017-Jun-20 21:56N 43°44' W 004°09'1 1.4
2017-Jun-20 21:07N 43°44' W 004°07'0 0.2
2017-Jun-20 20:58N 43°44' W 004°07'0 0.2
2017-Jun-20 20:25N 43°44' W 004°07'2 3.8
2017-Jun-20 19:55N 43°42' W 004°08'0 0.2
2017-Jun-20 19:30N 43°42' W 004°08'0 0.2
2017-Jun-20 19:00N 43°42' W 004°08'0 0.2
2017-Jun-20 18:30N 43°42' W 004°08'0 0.3
2017-Jun-20 17:58N 43°42' W 004°08'0 0.4
2017-Jun-20 17:11N 43°41' W 004°09'0 0.5
2017-Jun-20 16:59N 43°41' W 004°09'2 4.0
2017-Jun-20 16:30N 43°41' W 004°06'5 9.3
2017-Jun-20 15:58N 43°40' W 003°59'4 9.3
2017-Jun-20 15:30N 43°39' W 003°54'5 9.4
2017-Jun-20 14:56N 43°38' W 003°46'70 2.3
2017-Jun-19 08:36N 43°26' W 002°11'110.5
2017-Jun-19 08:30N 43°26' W 002°10'510.3
2017-Jun-19 08:00N 43°25' W 002°03'510.0
2017-Jun-19 07:30N 43°25' W 001°56'510.3
2017-Jun-19 07:00N 43°24' W 001°49'1 3.0
2017-Jun-19 06:30N 43°23' W 001°47'0 0.0
2017-Jun-19 06:00N 43°23' W 001°47'0 0.2
2017-Jun-19 05:30N 43°23' W 001°47'0 0.0
2017-Jun-18 13:07N 43°23' W 001°47'  
Track history (hours):
 
Tides and Currents Weather Stations Pressure Air Temp Water Temp Dewpoint Dewpoint Depression Visibility Wind Speed Wind Dir Waves Ship Positions

Gure Amuitz

Last reported at 2017-Jun-26 11:26 UTC. Time now 2017-Jun-27 05:33 UTC.
Position N 43°23' W 001°47'.

Length 28 m.

Type: Fishing. MMSI: 224010590.

Date/timePositionNaut miles runAvg speedWind from/ knotsBaromVisibWave heightAir tempDewpointWater temp
2017-Jun-26 11:26N 43°23' W 001°47'0 0.3
2017-Jun-26 11:00N 43°23' W 001°47'0 0.0
2017-Jun-26 10:30N 43°23' W 001°47'0 0.0
2017-Jun-26 10:00N 43°23' W 001°47'0 0.0
2017-Jun-26 09:30N 43°23' W 001°47'0 0.0
2017-Jun-26 09:00N 43°23' W 001°47'0 0.0
2017-Jun-26 08:30N 43°23' W 001°47'0 0.0
2017-Jun-26 08:00N 43°23' W 001°47'0 0.0
2017-Jun-26 07:30N 43°23' W 001°47'0 0.0
2017-Jun-26 07:00N 43°23' W 001°47'0 0.0
2017-Jun-24 07:56N 43°23' W 001°47'0 0.0
2017-Jun-23 09:27N 43°23' W 001°47'0 0.0
2017-Jun-23 09:00N 43°23' W 001°47'0 0.0
2017-Jun-22 10:53N 43°23' W 001°47'0 0.0
2017-Jun-22 10:30N 43°23' W 001°47'0 0.0
2017-Jun-22 10:00N 43°23' W 001°47'0 0.0
2017-Jun-22 09:31N 43°23' W 001°47'0 0.0
2017-Jun-22 09:00N 43°23' W 001°47'0 0.0
2017-Jun-22 08:30N 43°23' W 001°47'0 0.0
2017-Jun-22 08:00N 43°23' W 001°47'0 0.0
2017-Jun-22 07:30N 43°23' W 001°47'0 0.0
2017-Jun-22 07:01N 43°23' W 001°47'0 0.0
2017-Jun-22 06:30N 43°23' W 001°47'0 0.0
2017-Jun-22 06:00N 43°23' W 001°47'0 0.0
2017-Jun-22 05:30N 43°23' W 001°47'0 0.1
2017-Jun-22 05:00N 43°23' W 001°48'0 0.0
2017-Jun-22 04:25N 43°23' W 001°48'3 4.8
2017-Jun-22 03:43N 43°24' W 001°52'3 9.6
2017-Jun-22 03:25N 43°23' W 001°56'4 8.5
2017-Jun-22 02:55N 43°21' W 002°01'3 7.2
2017-Jun-22 02:30N 43°21' W 002°05'3 6.0
2017-Jun-22 02:00N 43°24' W 002°06'0 0.7
2017-Jun-22 01:27N 43°24' W 002°06'0 0.7
2017-Jun-22 01:00N 43°25' W 002°06'0 0.7
2017-Jun-22 00:30N 43°25' W 002°07'0 0.7
2017-Jun-22 00:01N 43°25' W 002°07'0 0.8
2017-Jun-21 23:30N 43°25' W 002°07'0 0.6
2017-Jun-21 23:00N 43°26' W 002°08'0 0.4
2017-Jun-21 22:30N 43°26' W 002°08'1 1.8
2017-Jun-21 22:00N 43°26' W 002°09'4 8.3
2017-Jun-21 21:28N 43°31' W 002°08'4 8.2
2017-Jun-21 21:01N 43°34' W 002°06'4 8.2
2017-Jun-21 20:30N 43°38' W 002°05'4 9.0
2017-Jun-21 20:00N 43°38' W 001°59'4 8.4
2017-Jun-21 19:30N 43°35' W 001°55'4 9.0
2017-Jun-21 19:00N 43°31' W 001°52'5 9.0
2017-Jun-21 18:29N 43°27' W 001°49'4 8.1
2017-Jun-21 18:00N 43°23' W 001°48'0 0.0
2017-Jun-21 15:21N 43°23' W 001°47'0 0.0
2017-Jun-21 15:00N 43°23' W 001°47'1 1.1
2017-Jun-21 14:29N 43°24' W 001°47'31 9.7
2017-Jun-21 11:20N 43°29' W 002°29'2410.0
2017-Jun-21 08:59N 43°34' W 003°00'510.2
2017-Jun-21 08:30N 43°35' W 003°07'510.1
2017-Jun-21 07:58N 43°37' W 003°14'510.1
2017-Jun-21 07:30N 43°38' W 003°20'510.0
2017-Jun-21 06:59N 43°40' W 003°27'5 9.9
2017-Jun-21 06:30N 43°42' W 003°33'5 9.5
2017-Jun-21 06:00N 43°44' W 003°39'4 7.3
2017-Jun-21 05:30N 43°43' W 003°44'0 0.9
2017-Jun-21 05:00N 43°44' W 003°45'0 0.5
2017-Jun-21 04:30N 43°43' W 003°45'1 2.9
2017-Jun-21 04:01N 43°43' W 003°47'0 0.3
2017-Jun-21 03:30N 43°43' W 003°46'1 1.9
2017-Jun-21 02:57N 43°42' W 003°46'4 9.2
2017-Jun-21 02:30N 43°42' W 003°52'510.3
2017-Jun-21 02:00N 43°45' W 003°58'14 6.1
2017-Jun-20 23:38N 43°47' W 004°18'0 0.4
2017-Jun-20 22:54N 43°47' W 004°17'3 6.1
2017-Jun-20 22:28N 43°46' W 004°14'4 8.2
2017-Jun-20 21:56N 43°44' W 004°09'1 1.4
2017-Jun-20 21:07N 43°44' W 004°07'0 0.2
2017-Jun-20 20:58N 43°44' W 004°07'0 0.2
2017-Jun-20 20:25N 43°44' W 004°07'2 3.8
2017-Jun-20 19:55N 43°42' W 004°08'0 0.2
2017-Jun-20 19:30N 43°42' W 004°08'0 0.2
2017-Jun-20 19:00N 43°42' W 004°08'0 0.2
2017-Jun-20 18:30N 43°42' W 004°08'0 0.3
2017-Jun-20 17:58N 43°42' W 004°08'0 0.4
2017-Jun-20 17:11N 43°41' W 004°09'0 0.5
2017-Jun-20 16:59N 43°41' W 004°09'2 4.0
2017-Jun-20 16:30N 43°41' W 004°06'5 9.3
2017-Jun-20 15:58N 43°40' W 003°59'4 9.3
2017-Jun-20 15:30N 43°39' W 003°54'5 9.4
2017-Jun-20 14:56N 43°38' W 003°46'70 2.3
2017-Jun-19 08:36N 43°26' W 002°11'110.5
2017-Jun-19 08:30N 43°26' W 002°10'510.3
2017-Jun-19 08:00N 43°25' W 002°03'510.0
2017-Jun-19 07:30N 43°25' W 001°56'510.3
2017-Jun-19 07:00N 43°24' W 001°49'1 3.0
2017-Jun-19 06:30N 43°23' W 001°47'0 0.0
2017-Jun-19 06:00N 43°23' W 001°47'0 0.2
2017-Jun-19 05:30N 43°23' W 001°47'0 0.0
2017-Jun-18 13:07N 43°23' W 001°47'  

Dump ship's entire track history